createdAt,value
2023-02-02T00:00:27.847Z,18.92
2023-02-02T00:02:57.299Z,18.65
2023-02-02T00:05:25.433Z,18.47
2023-02-02T00:07:53.731Z,18.23
2023-02-02T00:10:21.726Z,18.68
2023-02-02T00:12:49.790Z,18.81
2023-02-02T00:15:17.844Z,18.70
2023-02-02T00:17:45.849Z,18.28
2023-02-02T00:20:15.307Z,18.30
2023-02-02T00:22:43.376Z,18.58
2023-02-02T00:25:11.614Z,18.62
2023-02-02T00:27:39.604Z,18.64
2023-02-02T00:30:09.177Z,18.50
2023-02-02T00:32:37.253Z,18.12
2023-02-02T00:35:05.269Z,18.58
2023-02-02T00:37:34.888Z,18.50
2023-02-02T00:40:03.383Z,18.28
2023-02-02T00:42:31.393Z,18.45
2023-02-02T00:45:17.345Z,18.12
2023-02-02T00:47:48.339Z,18.55
2023-02-02T00:50:19.429Z,18.45
2023-02-02T00:52:50.087Z,18.15
2023-02-02T00:55:19.045Z,18.22
2023-02-02T00:57:47.397Z,18.23
2023-02-02T01:00:18.356Z,17.98
2023-02-02T01:02:46.430Z,18.06
2023-02-02T01:05:14.757Z,18.22
2023-02-02T01:07:42.889Z,18.33
2023-02-02T01:10:15.489Z,18.33
2023-02-02T01:12:44.782Z,17.88
2023-02-02T01:15:14.373Z,18.01
2023-02-02T01:17:42.635Z,17.85
2023-02-02T01:20:18.637Z,18.22
2023-02-02T01:22:46.834Z,17.97
2023-02-02T01:25:16.352Z,18.06
2023-02-02T01:27:44.348Z,17.93
2023-02-02T01:30:13.547Z,18.46
2023-02-02T01:32:41.618Z,18.39
2023-02-02T01:35:11.321Z,18.34
2023-02-02T01:37:40.144Z,18.13
2023-02-02T01:40:09.662Z,18.41
2023-02-02T01:42:38.920Z,18.11
2023-02-02T01:45:24.923Z,18.33
2023-02-02T01:47:55.915Z,17.94
2023-02-02T01:50:29.079Z,17.95
2023-02-02T01:52:59.134Z,18.13
2023-02-02T01:55:31.015Z,18.05
2023-02-02T01:58:05.794Z,17.98
2023-02-02T02:00:33.982Z,18.39
2023-02-02T02:03:06.310Z,18.28
2023-02-02T02:05:39.647Z,18.14
2023-02-02T02:08:14.922Z,18.23
2023-02-02T02:10:43.256Z,18.01
2023-02-02T02:13:13.652Z,18.30
2023-02-02T02:16:03.846Z,18.20
2023-02-02T02:18:41.069Z,17.92
2023-02-02T02:22:00.136Z,18.36
2023-02-02T02:25:20.300Z,18.43
2023-02-02T02:28:29.549Z,18.23
2023-02-02T02:31:32.241Z,18.29
2023-02-02T02:34:10.394Z,18.15
2023-02-02T02:36:46.499Z,18.18
2023-02-02T02:39:19.732Z,17.90
2023-02-02T02:41:52.087Z,18.35
2023-02-02T02:44:21.232Z,18.42
2023-02-02T02:46:51.197Z,18.16
2023-02-02T02:49:21.183Z,18.09
2023-02-02T02:51:51.158Z,17.76
2023-02-02T02:54:30.460Z,17.96
2023-02-02T02:57:21.668Z,18.27
2023-02-02T02:59:58.232Z,17.99
2023-02-02T03:02:37.472Z,18.11
2023-02-02T03:05:27.840Z,17.98
2023-02-02T03:08:07.159Z,17.85
2023-02-02T03:10:36.924Z,18.22
2023-02-02T03:13:09.776Z,17.97
2023-02-02T03:15:38.028Z,18.19
2023-02-02T03:18:06.056Z,18.43
2023-02-02T03:20:35.718Z,18.40
2023-02-02T03:23:03.722Z,18.13
2023-02-02T03:25:31.685Z,17.91
2023-02-02T03:27:59.943Z,17.96
2023-02-02T03:30:28.665Z,18.41
2023-02-02T03:32:56.730Z,18.42
2023-02-02T03:35:26.131Z,18.00
2023-02-02T03:37:55.742Z,18.14
2023-02-02T03:40:24.078Z,18.18
2023-02-02T03:42:52.061Z,18.22
2023-02-02T03:45:20.057Z,18.17
2023-02-02T03:47:48.052Z,18.14
2023-02-02T03:50:16.529Z,18.36
2023-02-02T03:52:44.433Z,18.28
2023-02-02T03:55:13.770Z,18.36
2023-02-02T03:57:41.776Z,18.32
2023-02-02T04:00:10.989Z,17.99
2023-02-02T04:02:41.944Z,17.98
2023-02-02T04:05:10.123Z,18.04
2023-02-02T04:07:38.155Z,18.05
2023-02-02T04:10:06.717Z,18.37
2023-02-02T04:12:36.013Z,17.99
2023-02-02T04:15:04.131Z,18.41
2023-02-02T04:17:32.266Z,18.08
2023-02-02T04:20:00.234Z,17.96
2023-02-02T04:22:28.576Z,18.22
2023-02-02T04:24:56.572Z,17.85
2023-02-02T04:27:24.897Z,18.31
2023-02-02T04:29:54.293Z,17.99
2023-02-02T04:32:22.274Z,18.05
2023-02-02T04:34:50.249Z,18.14
2023-02-02T04:37:18.242Z,18.41
2023-02-02T04:39:46.176Z,17.97
2023-02-02T04:42:14.109Z,18.29
2023-02-02T04:44:43.990Z,18.15
2023-02-02T04:47:13.638Z,18.05
2023-02-02T04:49:41.675Z,18.21
2023-02-02T04:52:11.501Z,17.88
2023-02-02T04:54:39.496Z,18.00
2023-02-02T04:57:07.453Z,18.37
2023-02-02T04:59:35.419Z,18.21
2023-02-02T05:02:03.600Z,18.03
2023-02-02T05:04:32.932Z,18.19
2023-02-02T05:07:00.949Z,18.11
2023-02-02T05:09:28.948Z,17.97
2023-02-02T05:11:56.994Z,18.14
2023-02-02T05:14:24.946Z,18.05
2023-02-02T05:16:53.779Z,18.10
2023-02-02T05:19:21.794Z,18.20
2023-02-02T05:21:51.574Z,18.05
2023-02-02T05:24:19.535Z,18.36
2023-02-02T05:26:47.713Z,17.99
2023-02-02T05:29:15.712Z,18.11
2023-02-02T05:31:43.768Z,18.14
2023-02-02T05:34:11.797Z,18.20
2023-02-02T05:36:39.858Z,18.20
2023-02-02T05:39:10.286Z,18.02
2023-02-02T05:41:38.717Z,17.99
2023-02-02T05:44:06.948Z,17.95
2023-02-02T05:46:34.980Z,18.12
2023-02-02T05:49:05.008Z,18.17
2023-02-02T05:51:38.519Z,18.35
2023-02-02T05:54:06.596Z,17.97
2023-02-02T05:56:36.022Z,17.96
2023-02-02T05:59:07.401Z,17.74
2023-02-02T06:01:35.828Z,18.06
2023-02-02T06:04:03.949Z,17.82
2023-02-02T06:06:32.055Z,17.93
2023-02-02T06:08:59.941Z,17.79
2023-02-02T06:11:27.983Z,18.13
2023-02-02T06:13:57.617Z,18.07
2023-02-02T06:16:25.905Z,18.02
2023-02-02T06:18:54.137Z,17.95
2023-02-02T06:21:24.747Z,18.03
2023-02-02T06:23:52.836Z,17.85
2023-02-02T06:26:20.897Z,17.79
2023-02-02T06:28:51.362Z,17.98
2023-02-02T06:31:21.944Z,17.75
2023-02-02T06:33:55.507Z,17.91
2023-02-02T06:36:24.780Z,17.85
2023-02-02T06:38:54.183Z,17.84
2023-02-02T06:41:22.812Z,17.70
2023-02-02T06:43:51.189Z,17.95
2023-02-02T06:46:20.629Z,17.79
2023-02-02T06:48:48.652Z,17.76
2023-02-02T06:51:16.750Z,18.04
2023-02-02T06:53:44.791Z,17.93
2023-02-02T06:56:13.960Z,17.96
2023-02-02T06:58:41.983Z,17.92
2023-02-02T07:01:11.727Z,17.86
2023-02-02T07:03:41.549Z,17.96
2023-02-02T07:06:14.397Z,17.93
2023-02-02T07:08:43.074Z,18.05
2023-02-02T07:11:15.417Z,18.00
2023-02-02T07:13:44.886Z,18.10
2023-02-02T07:16:14.017Z,17.96
2023-02-02T07:18:44.086Z,17.77
2023-02-02T07:21:19.298Z,17.97
2023-02-02T07:23:47.497Z,17.82
2023-02-02T07:26:17.152Z,18.23
2023-02-02T07:28:46.237Z,18.12
2023-02-02T07:31:16.309Z,18.00
2023-02-02T07:33:47.192Z,18.14
2023-02-02T07:36:17.316Z,18.02
2023-02-02T07:38:46.783Z,17.89
2023-02-02T07:41:15.372Z,18.02
2023-02-02T07:43:43.544Z,18.05
2023-02-02T07:46:14.382Z,18.13
2023-02-02T07:48:42.548Z,17.96
2023-02-02T07:51:14.158Z,17.97
2023-02-02T07:53:45.004Z,17.76
2023-02-02T07:56:14.398Z,17.89
2023-02-02T07:58:43.131Z,18.08
2023-02-02T08:01:12.950Z,17.91
2023-02-02T08:03:42.862Z,18.04
2023-02-02T08:06:15.534Z,18.09
2023-02-02T08:08:43.567Z,17.98
2023-02-02T08:11:12.804Z,18.34
2023-02-02T08:13:41.553Z,18.31
2023-02-02T08:16:10.480Z,18.67
2023-02-02T08:18:39.561Z,18.44
2023-02-02T08:21:09.861Z,18.43
2023-02-02T08:23:40.725Z,18.51
2023-02-02T08:26:12.086Z,18.35
2023-02-02T08:28:41.081Z,18.21
2023-02-02T08:31:10.823Z,18.26
2023-02-02T08:33:39.743Z,18.42
2023-02-02T08:36:12.513Z,18.33
2023-02-02T08:38:42.132Z,18.19
2023-02-02T08:41:12.367Z,17.92
2023-02-02T08:43:40.921Z,18.02
2023-02-02T08:46:11.184Z,18.41
2023-02-02T08:48:40.095Z,18.19
2023-02-02T08:51:09.488Z,18.13
2023-02-02T08:53:37.500Z,18.10
2023-02-02T08:56:09.187Z,18.09
2023-02-02T08:58:37.503Z,18.02
2023-02-02T09:01:07.059Z,18.12
2023-02-02T09:03:35.848Z,17.93
2023-02-02T09:06:07.952Z,17.81
2023-02-02T09:08:36.299Z,17.87
2023-02-02T09:11:07.340Z,17.66
2023-02-02T09:13:36.752Z,17.61
2023-02-02T09:16:06.858Z,17.50
2023-02-02T09:18:35.213Z,17.59
2023-02-02T09:21:04.899Z,17.44
2023-02-02T09:23:34.200Z,17.41
2023-02-02T09:26:11.750Z,17.41
2023-02-02T09:28:40.033Z,16.98
2023-02-02T09:31:08.581Z,17.00
2023-02-02T09:33:37.363Z,17.35
2023-02-02T09:36:07.044Z,17.25
2023-02-02T09:38:35.612Z,17.39
2023-02-02T09:41:24.959Z,17.50
2023-02-02T09:44:02.498Z,17.60
2023-02-02T09:46:40.442Z,17.18
2023-02-02T09:49:12.707Z,17.09
2023-02-02T09:51:45.745Z,17.12
2023-02-02T09:54:20.632Z,17.15
2023-02-02T09:56:55.773Z,17.14
2023-02-02T09:59:27.349Z,17.13
2023-02-02T10:01:59.141Z,17.16
2023-02-02T10:04:30.997Z,17.23
2023-02-02T10:07:05.928Z,17.12
2023-02-02T10:09:43.575Z,16.69
2023-02-02T10:12:24.375Z,17.29
2023-02-02T10:14:58.976Z,17.00
2023-02-02T10:17:39.901Z,16.85
2023-02-02T10:20:29.364Z,16.96
2023-02-02T10:23:01.080Z,17.20
2023-02-02T10:25:30.738Z,16.73
2023-02-02T10:28:07.453Z,17.06
2023-02-02T10:30:46.262Z,16.68
2023-02-02T10:33:22.294Z,16.74
2023-02-02T10:35:58.020Z,16.87
2023-02-02T10:38:36.705Z,17.02
2023-02-02T10:41:15.396Z,16.88
2023-02-02T10:44:05.885Z,16.61
2023-02-02T10:46:39.266Z,16.59
2023-02-02T10:49:20.166Z,16.33
2023-02-02T10:51:58.028Z,16.46
2023-02-02T10:54:57.209Z,16.64
2023-02-02T10:57:42.262Z,16.50
2023-02-02T11:00:22.923Z,16.45
2023-02-02T11:02:52.632Z,16.31
2023-02-02T11:05:40.921Z,16.48
2023-02-02T11:08:17.871Z,16.06
2023-02-02T11:10:47.111Z,16.46
2023-02-02T11:13:27.958Z,15.98
2023-02-02T11:16:32.604Z,15.88
2023-02-02T11:19:24.141Z,15.83
2023-02-02T11:21:54.146Z,16.01
2023-02-02T11:24:24.552Z,16.48
2023-02-02T11:26:55.771Z,15.90
2023-02-02T11:29:28.866Z,15.89
2023-02-02T11:31:58.670Z,15.68
2023-02-02T11:34:29.170Z,15.84
2023-02-02T11:37:03.152Z,16.16
2023-02-02T11:39:31.853Z,16.26
2023-02-02T11:42:02.179Z,15.78
2023-02-02T11:44:34.189Z,16.70
2023-02-02T11:47:05.766Z,16.38
2023-02-02T11:49:40.304Z,16.34
2023-02-02T11:52:17.532Z,15.92
2023-02-02T11:54:49.196Z,15.76
2023-02-02T11:57:20.819Z,16.04
2023-02-02T11:59:50.147Z,15.94
2023-02-02T12:02:31.529Z,16.01
2023-02-02T12:05:16.380Z,16.38
2023-02-02T12:07:45.388Z,15.90
2023-02-02T12:10:19.223Z,15.72
2023-02-02T12:12:57.153Z,15.79
2023-02-02T12:15:39.111Z,16.41
2023-02-02T12:18:20.977Z,16.01
2023-02-02T12:20:56.902Z,17.18
2023-02-02T12:23:39.371Z,18.07
2023-02-02T12:26:25.703Z,18.15
2023-02-02T12:29:15.779Z,17.44
2023-02-02T12:31:59.600Z,17.59
2023-02-02T12:34:38.581Z,17.34
2023-02-02T12:37:16.156Z,17.50
2023-02-02T12:39:56.309Z,17.30
2023-02-02T12:42:42.068Z,17.10
2023-02-02T12:45:31.495Z,16.95
2023-02-02T12:48:15.006Z,16.54
2023-02-02T12:50:59.946Z,16.77
2023-02-02T12:53:39.235Z,16.47
2023-02-02T12:56:18.366Z,16.82
2023-02-02T12:58:57.915Z,16.66
2023-02-02T13:01:52.516Z,16.22
2023-02-02T13:04:41.558Z,16.70
2023-02-02T13:07:28.162Z,16.61
2023-02-02T13:10:06.989Z,16.51
2023-02-02T13:12:41.107Z,16.55
2023-02-02T13:15:13.260Z,16.28
2023-02-02T13:17:46.685Z,16.07
2023-02-02T13:20:24.204Z,16.26
2023-02-02T13:22:58.419Z,15.81
2023-02-02T13:25:29.784Z,16.07
2023-02-02T13:28:00.949Z,15.78
2023-02-02T13:30:32.332Z,15.89
2023-02-02T13:33:03.613Z,16.06
2023-02-02T13:35:38.086Z,15.67
2023-02-02T13:38:17.428Z,15.78
2023-02-02T13:40:45.893Z,15.77
2023-02-02T13:43:25.602Z,15.79
2023-02-02T13:46:05.321Z,16.03
2023-02-02T13:48:40.481Z,16.11
2023-02-02T13:51:30.149Z,15.89
2023-02-02T13:54:27.015Z,15.99
2023-02-02T13:57:06.130Z,15.95
2023-02-02T13:59:52.394Z,15.90
2023-02-02T14:02:27.696Z,15.60
2023-02-02T14:04:58.622Z,15.89
2023-02-02T14:07:42.051Z,15.75
2023-02-02T14:10:25.396Z,16.01
2023-02-02T14:12:55.049Z,16.00
2023-02-02T14:15:38.322Z,15.99
2023-02-02T14:18:07.137Z,16.08
2023-02-02T14:20:49.023Z,16.11
2023-02-02T14:23:57.663Z,16.09
2023-02-02T14:26:45.767Z,16.13
2023-02-02T14:29:36.902Z,16.14
2023-02-02T14:32:34.509Z,16.12
2023-02-02T14:35:55.656Z,15.92
2023-02-02T14:38:33.131Z,16.09
2023-02-02T14:41:11.571Z,15.97
2023-02-02T14:43:48.005Z,16.29
2023-02-02T14:46:41.078Z,16.01
2023-02-02T14:49:21.361Z,16.04
2023-02-02T14:51:53.191Z,16.21
2023-02-02T14:54:26.431Z,16.08
2023-02-02T14:56:59.352Z,16.09
2023-02-02T14:59:34.057Z,15.95
2023-02-02T15:02:15.299Z,16.05
2023-02-02T15:04:45.211Z,16.26
2023-02-02T15:07:53.906Z,16.13
2023-02-02T15:11:27.139Z,15.94
2023-02-02T15:14:10.200Z,15.92
2023-02-02T15:16:42.369Z,15.71
2023-02-02T15:19:22.131Z,16.02
2023-02-02T15:21:53.381Z,15.72
2023-02-02T15:24:25.841Z,15.80
2023-02-02T15:26:55.770Z,16.11
2023-02-02T15:29:38.552Z,16.04
2023-02-02T15:32:14.726Z,15.74
2023-02-02T15:34:46.646Z,15.93
2023-02-02T15:37:20.389Z,15.95
2023-02-02T15:39:52.080Z,16.04
2023-02-02T15:42:41.086Z,15.76
2023-02-02T15:45:31.631Z,16.00
2023-02-02T15:48:04.162Z,16.06
2023-02-02T15:50:32.259Z,15.90
2023-02-02T15:53:00.282Z,15.73
2023-02-02T15:55:33.539Z,16.06
2023-02-02T15:58:02.255Z,16.09
2023-02-02T16:00:32.766Z,15.90
2023-02-02T16:03:11.318Z,15.63
2023-02-02T16:05:47.587Z,15.69
2023-02-02T16:08:19.968Z,15.61
2023-02-02T16:10:49.469Z,15.99
2023-02-02T16:13:26.627Z,15.75
2023-02-02T16:16:00.400Z,15.49
2023-02-02T16:18:30.743Z,15.77
2023-02-02T16:21:01.800Z,15.94
2023-02-02T16:23:32.707Z,15.87
2023-02-02T16:26:03.746Z,15.94
2023-02-02T16:28:33.517Z,15.48
2023-02-02T16:31:02.821Z,15.65
2023-02-02T16:33:37.430Z,15.91
2023-02-02T16:36:25.214Z,16.03
2023-02-02T16:38:54.842Z,15.90
2023-02-02T16:41:28.062Z,15.31
2023-02-02T16:43:56.585Z,15.41
2023-02-02T16:46:45.639Z,15.62
2023-02-02T16:49:23.461Z,15.19
2023-02-02T16:52:10.259Z,15.48
2023-02-02T16:54:39.816Z,15.32
2023-02-02T16:57:07.830Z,15.32
2023-02-02T16:59:37.958Z,15.47
2023-02-02T17:02:22.012Z,14.98
2023-02-02T17:04:57.007Z,15.20
2023-02-02T17:07:25.866Z,15.02
2023-02-02T17:10:12.938Z,14.99
2023-02-02T17:12:41.024Z,15.37
2023-02-02T17:15:29.479Z,15.02
2023-02-02T17:17:58.556Z,15.11
2023-02-02T17:20:28.797Z,15.02
2023-02-02T17:23:00.916Z,15.13
2023-02-02T17:25:31.674Z,15.05
2023-02-02T17:28:01.371Z,15.13
2023-02-02T17:30:30.989Z,15.03
2023-02-02T17:32:59.012Z,15.23
2023-02-02T17:35:39.939Z,15.26
2023-02-02T17:38:17.488Z,15.27
2023-02-02T17:40:45.484Z,15.29
2023-02-02T17:43:13.494Z,15.14
2023-02-02T17:45:41.538Z,15.08
2023-02-02T17:48:12.318Z,14.89
2023-02-02T17:50:43.344Z,15.02
2023-02-02T17:53:12.993Z,15.00
2023-02-02T17:55:43.081Z,14.85
2023-02-02T17:58:15.049Z,15.03
2023-02-02T18:00:43.779Z,15.16
2023-02-02T18:03:15.293Z,15.06
2023-02-02T18:05:44.714Z,14.85
2023-02-02T18:08:13.111Z,14.83
2023-02-02T18:10:41.645Z,14.81
2023-02-02T18:13:11.006Z,15.32
2023-02-02T18:15:39.872Z,14.92
2023-02-02T18:18:07.777Z,15.05
2023-02-02T18:20:36.323Z,14.89
2023-02-02T18:23:05.710Z,15.01
2023-02-02T18:25:33.809Z,15.20
2023-02-02T18:28:01.736Z,15.52
2023-02-02T18:30:29.802Z,15.94
2023-02-02T18:32:57.781Z,16.51
2023-02-02T18:35:27.123Z,16.41
2023-02-02T18:37:55.269Z,16.60
2023-02-02T18:40:24.726Z,16.67
2023-02-02T18:42:52.745Z,17.16
2023-02-02T18:45:20.686Z,16.84
2023-02-02T18:47:49.405Z,16.73
2023-02-02T18:50:17.820Z,16.93
2023-02-02T18:52:45.847Z,16.82
2023-02-02T18:55:13.840Z,16.80
2023-02-02T18:57:43.238Z,16.76
2023-02-02T19:00:12.716Z,16.67
2023-02-02T19:02:40.620Z,16.85
2023-02-02T19:05:22.801Z,16.76
2023-02-02T19:07:57.141Z,16.77
2023-02-02T19:10:27.172Z,16.74
2023-02-02T19:13:02.863Z,16.61
2023-02-02T19:15:33.777Z,16.63
2023-02-02T19:18:02.262Z,16.42
2023-02-02T19:20:31.848Z,16.68
2023-02-02T19:23:04.046Z,16.55
2023-02-02T19:25:32.064Z,16.59
2023-02-02T19:28:04.005Z,16.57
2023-02-02T19:30:32.070Z,16.57
2023-02-02T19:33:00.129Z,16.36
2023-02-02T19:35:29.458Z,16.11
2023-02-02T19:38:03.334Z,15.96
2023-02-02T19:40:31.319Z,16.24
2023-02-02T19:43:09.455Z,16.17
2023-02-02T19:45:39.781Z,16.22
2023-02-02T19:48:16.304Z,16.10
2023-02-02T19:50:44.731Z,16.39
2023-02-02T19:53:21.251Z,16.54
2023-02-02T19:55:49.293Z,16.61
2023-02-02T19:58:21.112Z,16.60
2023-02-02T20:00:50.289Z,16.51
2023-02-02T20:03:21.332Z,16.24
2023-02-02T20:05:51.601Z,16.00
2023-02-02T20:08:25.181Z,16.46
2023-02-02T20:10:54.865Z,16.39
2023-02-02T20:13:30.326Z,16.22
2023-02-02T20:16:03.814Z,15.97
2023-02-02T20:18:43.013Z,16.01
2023-02-02T20:21:20.421Z,15.83
2023-02-02T20:23:48.788Z,15.74
2023-02-02T20:26:23.938Z,16.26
2023-02-02T20:28:54.827Z,15.70
2023-02-02T20:31:24.807Z,16.11
2023-02-02T20:33:55.367Z,15.88
2023-02-02T20:36:35.667Z,15.56
2023-02-02T20:39:22.070Z,15.92
2023-02-02T20:41:50.070Z,15.90
2023-02-02T20:44:19.427Z,15.54
2023-02-02T20:46:47.826Z,15.64
2023-02-02T20:49:15.903Z,15.37
2023-02-02T20:51:44.231Z,15.35
2023-02-02T20:54:12.493Z,15.59
2023-02-02T20:56:41.195Z,15.41
2023-02-02T20:59:09.231Z,15.71
2023-02-02T21:01:38.720Z,15.59
2023-02-02T21:04:07.270Z,15.55
2023-02-02T21:06:35.472Z,15.32
2023-02-02T21:09:03.722Z,15.33
2023-02-02T21:11:31.801Z,15.49
2023-02-02T21:14:00.037Z,15.55
2023-02-02T21:16:28.163Z,15.48
2023-02-02T21:18:57.598Z,15.31
2023-02-02T21:21:26.119Z,15.76
2023-02-02T21:23:56.232Z,15.74
2023-02-02T21:26:27.294Z,15.65
2023-02-02T21:28:55.371Z,15.51
2023-02-02T21:31:23.510Z,15.85
2023-02-02T21:33:51.675Z,15.58
2023-02-02T21:36:30.827Z,16.06
2023-02-02T21:39:02.953Z,15.83
2023-02-02T21:41:33.434Z,16.17
2023-02-02T21:44:01.355Z,16.25
2023-02-02T21:46:34.439Z,16.22
2023-02-02T21:49:02.819Z,16.28
2023-02-02T21:51:35.180Z,16.13
2023-02-02T21:54:19.541Z,16.19
2023-02-02T21:56:47.914Z,16.29
2023-02-02T21:59:19.103Z,16.26
2023-02-02T22:01:48.395Z,16.20
2023-02-02T22:04:20.171Z,16.57
2023-02-02T22:06:51.748Z,16.70
2023-02-02T22:09:22.964Z,16.67
2023-02-02T22:11:58.414Z,16.40
2023-02-02T22:14:38.343Z,16.38
2023-02-02T22:17:21.904Z,16.66
2023-02-02T22:19:52.288Z,16.40
2023-02-02T22:22:23.077Z,16.65
2023-02-02T22:24:58.191Z,16.40
2023-02-02T22:27:28.743Z,16.20
2023-02-02T22:30:01.953Z,16.31
2023-02-02T22:32:30.099Z,16.58
2023-02-02T22:34:58.059Z,16.42
2023-02-02T22:37:27.446Z,16.24
2023-02-02T22:39:55.389Z,16.21
2023-02-02T22:42:23.557Z,16.38
2023-02-02T22:44:51.538Z,16.38
2023-02-02T22:47:19.594Z,16.40
2023-02-02T22:49:47.588Z,16.64
2023-02-02T22:52:15.645Z,17.52
2023-02-02T22:54:45.010Z,17.77
2023-02-02T22:57:13.059Z,17.92
2023-02-02T22:59:41.021Z,17.78
2023-02-02T23:02:09.127Z,17.59
2023-02-02T23:04:37.014Z,17.37
2023-02-02T23:07:05.053Z,17.28
2023-02-02T23:09:33.068Z,17.37
2023-02-02T23:12:02.474Z,17.31
2023-02-02T23:14:30.572Z,17.22
2023-02-02T23:16:58.575Z,17.23
2023-02-02T23:19:26.624Z,17.26
2023-02-02T23:21:54.635Z,17.29
2023-02-02T23:24:22.617Z,17.20
2023-02-02T23:26:51.006Z,17.19
2023-02-02T23:29:20.398Z,17.16
2023-02-02T23:31:48.579Z,17.17
2023-02-02T23:34:16.582Z,17.14
2023-02-02T23:36:44.672Z,17.03
2023-02-02T23:39:12.660Z,17.20
2023-02-02T23:41:40.638Z,16.91
2023-02-02T23:44:08.650Z,17.15
2023-02-02T23:46:39.698Z,17.24
2023-02-02T23:49:07.735Z,17.20
2023-02-02T23:51:35.993Z,17.22
2023-02-02T23:54:04.525Z,17.22
2023-02-02T23:56:32.633Z,17.10
2023-02-02T23:59:00.684Z,17.12
